KBTM/BTM METAR and TAF weather

Enter ICAO airport designator
Station Type Date Time Source
KBTM METAR 2021/03/04 20:53 UTC NOAA

KBTM 042053Z AUTO 18003KT 10SM CLR 06/M07 A3012 RMK AO2 SLP229 T00611067 51004


Station Type Date Time Source
KBTM Decoded METAR 2021/03/04 20:53 UTC NOAA

BERT MOONEY AIRPORT, MT, United States (KBTM) 45-58N 112-30W 1688M
Mar 04, 2021 - 03:53 PM EST / 2021.03.04 2053 UTC
Wind: from the S (180 degrees) at 3 MPH (3 KT):0
Visibility: 10 mile(s):0
Sky conditions: clear
Temperature: 43.0 F (6.1 C)
Dew Point: 19.9 F (-6.7 C)
Relative Humidity: 39%
Pressure (altimeter): 30.12 in. Hg (1019 hPa)
Pressure tendency: 0.01 inches (0.4 hPa) higher than three hours ago
ob: KBTM 042053Z AUTO 18003KT 10SM CLR 06/M07 A3012 RMK AO2 SLP229 T00611067 51004
cycle: 21

Station Type Date Time Source
KBTM TAF 2021/03/04 18:22 UTC NOAA

TAF KBTM 041720Z 0418/0518 VRB03KT P6SM SCT250

Example: see airport list